sensor_id;sensor_type;location;lat;lon;timestamp;pressure;altitude;pressure_sealevel;temperature;humidity
20971;BME280;10644;48.834;10.088;2023-12-28T00:00:19;96762.84;;;8.48;54.29
20971;BME280;10644;48.834;10.088;2023-12-28T00:02:47;96773.59;;;8.73;53.32
20971;BME280;10644;48.834;10.088;2023-12-28T00:05:15;96773.53;;;8.93;52.99
20971;BME280;10644;48.834;10.088;2023-12-28T00:07:40;96760.47;;;8.99;52.46
20971;BME280;10644;48.834;10.088;2023-12-28T00:10:06;96759.16;;;9.09;52.80
20971;BME280;10644;48.834;10.088;2023-12-28T00:12:31;96768.91;;;9.18;52.16
20971;BME280;10644;48.834;10.088;2023-12-28T00:14:57;96766.44;;;9.17;52.01
20971;BME280;10644;48.834;10.088;2023-12-28T00:17:22;96773.38;;;9.32;51.87
20971;BME280;10644;48.834;10.088;2023-12-28T00:19:48;96776.63;;;9.35;51.37
20971;BME280;10644;48.834;10.088;2023-12-28T00:22:13;96790.41;;;9.14;51.60
20971;BME280;10644;48.834;10.088;2023-12-28T00:24:38;96782.28;;;9.06;51.72
20971;BME280;10644;48.834;10.088;2023-12-28T00:27:06;96787.66;;;9.00;51.18
20971;BME280;10644;48.834;10.088;2023-12-28T00:29:32;96790.84;;;8.87;51.42
20971;BME280;10644;48.834;10.088;2023-12-28T00:31:59;96779.25;;;8.61;52.01
20971;BME280;10644;48.834;10.088;2023-12-28T00:34:24;96789.47;;;8.61;52.53
20971;BME280;10644;48.834;10.088;2023-12-28T00:36:50;96792.34;;;8.54;52.71
20971;BME280;10644;48.834;10.088;2023-12-28T00:39:15;96779.81;;;8.68;52.60
20971;BME280;10644;48.834;10.088;2023-12-28T00:41:41;96782.09;;;8.74;52.68
20971;BME280;10644;48.834;10.088;2023-12-28T00:44:06;96789.69;;;8.75;52.56
20971;BME280;10644;48.834;10.088;2023-12-28T00:46:35;96792.53;;;8.69;52.85
20971;BME280;10644;48.834;10.088;2023-12-28T00:49:00;96789.81;;;8.72;52.19
20971;BME280;10644;48.834;10.088;2023-12-28T00:51:25;96791.97;;;8.81;52.34
20971;BME280;10644;48.834;10.088;2023-12-28T00:53:51;96784.78;;;8.71;52.01
20971;BME280;10644;48.834;10.088;2023-12-28T00:56:16;96787.13;;;8.57;52.68
20971;BME280;10644;48.834;10.088;2023-12-28T00:58:45;96797.56;;;8.52;52.61
20971;BME280;10644;48.834;10.088;2023-12-28T01:01:11;96799.69;;;8.61;52.74
20971;BME280;10644;48.834;10.088;2023-12-28T01:03:36;96796.56;;;8.36;53.24
20971;BME280;10644;48.834;10.088;2023-12-28T01:06:01;96810.66;;;8.25;53.05
20971;BME280;10644;48.834;10.088;2023-12-28T01:08:27;96814.81;;;8.27;53.09
20971;BME280;10644;48.834;10.088;2023-12-28T01:10:52;96808.44;;;7.97;54.35
20971;BME280;10644;48.834;10.088;2023-12-28T01:13:18;96803.81;;;8.05;53.87
20971;BME280;10644;48.834;10.088;2023-12-28T01:15:43;96803.72;;;8.08;53.71
20971;BME280;10644;48.834;10.088;2023-12-28T01:18:08;96794.94;;;8.14;53.53
20971;BME280;10644;48.834;10.088;2023-12-28T01:20:34;96807.22;;;8.26;52.62
20971;BME280;10644;48.834;10.088;2023-12-28T01:23:00;96785.56;;;8.34;52.87
20971;BME280;10644;48.834;10.088;2023-12-28T01:25:25;96795.28;;;8.26;52.53
20971;BME280;10644;48.834;10.088;2023-12-28T01:27:51;96812.25;;;8.27;52.55
20971;BME280;10644;48.834;10.088;2023-12-28T01:30:16;96803.56;;;8.11;53.19
20971;BME280;10644;48.834;10.088;2023-12-28T01:32:41;96799.16;;;8.15;53.05
20971;BME280;10644;48.834;10.088;2023-12-28T01:35:09;96801.91;;;8.10;53.06
20971;BME280;10644;48.834;10.088;2023-12-28T01:37:34;96813.28;;;8.23;53.06
20971;BME280;10644;48.834;10.088;2023-12-28T01:40:00;96803.31;;;8.17;52.95
20971;BME280;10644;48.834;10.088;2023-12-28T01:42:26;96810.53;;;8.28;52.90
20971;BME280;10644;48.834;10.088;2023-12-28T01:44:51;96805.97;;;8.34;52.44
20971;BME280;10644;48.834;10.088;2023-12-28T01:47:17;96810.81;;;8.22;52.74
20971;BME280;10644;48.834;10.088;2023-12-28T01:49:43;96828.56;;;8.23;52.97
20971;BME280;10644;48.834;10.088;2023-12-28T01:52:09;96821.09;;;8.19;53.15
20971;BME280;10644;48.834;10.088;2023-12-28T01:54:35;96808.16;;;8.03;53.70
20971;BME280;10644;48.834;10.088;2023-12-28T01:57:02;96813.06;;;8.08;53.62
20971;BME280;10644;48.834;10.088;2023-12-28T01:59:28;96812.69;;;8.17;53.34
20971;BME280;10644;48.834;10.088;2023-12-28T02:01:54;96814.28;;;7.99;54.28
20971;BME280;10644;48.834;10.088;2023-12-28T02:04:20;96822.56;;;8.04;54.05
20971;BME280;10644;48.834;10.088;2023-12-28T02:06:59;96823.16;;;8.11;53.91
20971;BME280;10644;48.834;10.088;2023-12-28T02:09:25;96824.63;;;7.96;54.50
20971;BME280;10644;48.834;10.088;2023-12-28T02:11:52;96837.09;;;7.82;54.41
20971;BME280;10644;48.834;10.088;2023-12-28T02:14:18;96831.88;;;7.85;54.22
20971;BME280;10644;48.834;10.088;2023-12-28T02:16:59;96831.22;;;8.00;53.54
20971;BME280;10644;48.834;10.088;2023-12-28T02:22:05;96838.72;;;8.05;53.96
20971;BME280;10644;48.834;10.088;2023-12-28T02:24:32;96831.88;;;8.05;53.27
20971;BME280;10644;48.834;10.088;2023-12-28T02:26:57;96837.34;;;8.16;52.99
20971;BME280;10644;48.834;10.088;2023-12-28T02:29:23;96842.97;;;8.04;53.27
20971;BME280;10644;48.834;10.088;2023-12-28T02:32:00;96843.22;;;7.98;53.26
20971;BME280;10644;48.834;10.088;2023-12-28T02:34:34;96850.94;;;7.97;53.02
20971;BME280;10644;48.834;10.088;2023-12-28T02:37:02;96843.59;;;7.89;53.38
20971;BME280;10644;48.834;10.088;2023-12-28T02:39:30;96846.69;;;7.97;53.58
20971;BME280;10644;48.834;10.088;2023-12-28T02:41:56;96834.81;;;7.96;53.26
20971;BME280;10644;48.834;10.088;2023-12-28T02:44:21;96836.97;;;8.05;53.34
20971;BME280;10644;48.834;10.088;2023-12-28T02:46:47;96841.31;;;8.03;53.64
20971;BME280;10644;48.834;10.088;2023-12-28T02:49:12;96845.06;;;8.15;53.57
20971;BME280;10644;48.834;10.088;2023-12-28T02:51:38;96841.34;;;8.23;53.52
20971;BME280;10644;48.834;10.088;2023-12-28T02:54:03;96849.13;;;8.20;52.63
20971;BME280;10644;48.834;10.088;2023-12-28T02:56:29;96848.41;;;8.17;53.37
20971;BME280;10644;48.834;10.088;2023-12-28T02:58:55;96852.81;;;8.13;53.47
20971;BME280;10644;48.834;10.088;2023-12-28T03:01:20;96842.13;;;8.04;53.13
20971;BME280;10644;48.834;10.088;2023-12-28T03:03:46;96855.22;;;7.96;53.75
20971;BME280;10644;48.834;10.088;2023-12-28T03:06:12;96852.44;;;7.81;54.01
20971;BME280;10644;48.834;10.088;2023-12-28T03:08:37;96849.69;;;7.65;54.28
20971;BME280;10644;48.834;10.088;2023-12-28T03:11:03;96844.94;;;7.56;54.53
20971;BME280;10644;48.834;10.088;2023-12-28T03:13:28;96852.13;;;7.47;55.25
20971;BME280;10644;48.834;10.088;2023-12-28T03:15:54;96853.94;;;7.65;54.73
20971;BME280;10644;48.834;10.088;2023-12-28T03:18:19;96851.00;;;7.32;55.64
20971;BME280;10644;48.834;10.088;2023-12-28T03:20:44;96848.75;;;7.25;55.74
20971;BME280;10644;48.834;10.088;2023-12-28T03:23:11;96833.72;;;7.40;55.18
20971;BME280;10644;48.834;10.088;2023-12-28T03:25:36;96827.31;;;7.30;55.50
20971;BME280;10644;48.834;10.088;2023-12-28T03:28:06;96841.19;;;7.23;55.55
20971;BME280;10644;48.834;10.088;2023-12-28T03:30:33;96839.94;;;7.33;55.07
20971;BME280;10644;48.834;10.088;2023-12-28T03:32:58;96840.63;;;7.37;55.72
20971;BME280;10644;48.834;10.088;2023-12-28T03:35:24;96840.06;;;7.30;55.46
20971;BME280;10644;48.834;10.088;2023-12-28T03:37:50;96834.19;;;7.28;55.82
20971;BME280;10644;48.834;10.088;2023-12-28T03:40:16;96849.44;;;7.51;54.99
20971;BME280;10644;48.834;10.088;2023-12-28T03:42:41;96843.59;;;7.26;55.84
20971;BME280;10644;48.834;10.088;2023-12-28T03:45:07;96844.25;;;7.31;55.52
20971;BME280;10644;48.834;10.088;2023-12-28T03:47:33;96849.00;;;7.40;55.44
20971;BME280;10644;48.834;10.088;2023-12-28T03:49:59;96831.34;;;7.14;56.33
20971;BME280;10644;48.834;10.088;2023-12-28T03:52:28;96850.63;;;6.98;56.23
20971;BME280;10644;48.834;10.088;2023-12-28T03:54:57;96841.84;;;6.84;57.13
20971;BME280;10644;48.834;10.088;2023-12-28T03:57:22;96851.69;;;6.93;57.11
20971;BME280;10644;48.834;10.088;2023-12-28T03:59:48;96857.19;;;7.27;56.12
20971;BME280;10644;48.834;10.088;2023-12-28T04:02:15;96846.47;;;7.40;55.98
20971;BME280;10644;48.834;10.088;2023-12-28T04:04:40;96849.94;;;7.59;55.41
20971;BME280;10644;48.834;10.088;2023-12-28T04:07:05;96855.16;;;7.56;55.27
20971;BME280;10644;48.834;10.088;2023-12-28T04:09:34;96863.75;;;7.75;55.13
20971;BME280;10644;48.834;10.088;2023-12-28T04:12:00;96855.84;;;7.81;54.45
20971;BME280;10644;48.834;10.088;2023-12-28T04:14:28;96854.03;;;7.83;54.37
20971;BME280;10644;48.834;10.088;2023-12-28T04:16:53;96845.25;;;7.90;54.35
20971;BME280;10644;48.834;10.088;2023-12-28T04:19:19;96853.88;;;7.88;54.29
20971;BME280;10644;48.834;10.088;2023-12-28T04:21:46;96847.03;;;7.88;54.09
20971;BME280;10644;48.834;10.088;2023-12-28T04:24:12;96846.78;;;7.94;54.38
20971;BME280;10644;48.834;10.088;2023-12-28T04:26:38;96838.63;;;7.86;53.98
20971;BME280;10644;48.834;10.088;2023-12-28T04:29:04;96843.06;;;7.61;55.23
20971;BME280;10644;48.834;10.088;2023-12-28T04:31:30;96832.28;;;7.55;55.33
20971;BME280;10644;48.834;10.088;2023-12-28T04:33:55;96830.84;;;7.48;55.55
20971;BME280;10644;48.834;10.088;2023-12-28T04:36:21;96805.97;;;7.54;54.91
20971;BME280;10644;48.834;10.088;2023-12-28T04:38:46;96811.34;;;7.68;54.93
20971;BME280;10644;48.834;10.088;2023-12-28T04:41:12;96811.97;;;7.73;54.76
20971;BME280;10644;48.834;10.088;2023-12-28T04:43:38;96807.50;;;7.78;54.68
20971;BME280;10644;48.834;10.088;2023-12-28T04:46:04;96794.66;;;7.81;54.92
20971;BME280;10644;48.834;10.088;2023-12-28T04:48:31;96796.44;;;7.79;54.93
20971;BME280;10644;48.834;10.088;2023-12-28T04:50:56;96802.34;;;7.80;55.18
20971;BME280;10644;48.834;10.088;2023-12-28T04:53:21;96815.16;;;7.78;54.96
20971;BME280;10644;48.834;10.088;2023-12-28T04:55:47;96805.50;;;7.86;54.84
20971;BME280;10644;48.834;10.088;2023-12-28T04:58:12;96808.94;;;7.85;54.93
20971;BME280;10644;48.834;10.088;2023-12-28T05:00:39;96810.84;;;7.80;55.17
20971;BME280;10644;48.834;10.088;2023-12-28T05:03:30;96820.66;;;7.89;55.44
20971;BME280;10644;48.834;10.088;2023-12-28T05:05:55;96815.28;;;7.95;55.01
20971;BME280;10644;48.834;10.088;2023-12-28T05:08:21;96826.06;;;8.02;55.37
20971;BME280;10644;48.834;10.088;2023-12-28T05:10:46;96820.50;;;8.12;54.94
20971;BME280;10644;48.834;10.088;2023-12-28T05:13:14;96812.00;;;8.13;55.11
20971;BME280;10644;48.834;10.088;2023-12-28T05:15:39;96818.59;;;8.17;54.78
20971;BME280;10644;48.834;10.088;2023-12-28T05:18:05;96823.59;;;8.00;55.40
20971;BME280;10644;48.834;10.088;2023-12-28T05:20:32;96822.56;;;8.04;55.74
20971;BME280;10644;48.834;10.088;2023-12-28T05:22:57;96823.97;;;8.11;55.44
20971;BME280;10644;48.834;10.088;2023-12-28T05:25:23;96819.91;;;8.27;55.25
20971;BME280;10644;48.834;10.088;2023-12-28T05:27:48;96813.78;;;8.31;55.04
20971;BME280;10644;48.834;10.088;2023-12-28T05:30:14;96802.53;;;8.35;53.93
20971;BME280;10644;48.834;10.088;2023-12-28T05:32:39;96809.88;;;8.43;54.14
20971;BME280;10644;48.834;10.088;2023-12-28T05:35:05;96797.72;;;8.48;53.25
20971;BME280;10644;48.834;10.088;2023-12-28T05:37:31;96792.91;;;8.60;52.89
20971;BME280;10644;48.834;10.088;2023-12-28T05:39:57;96799.28;;;8.70;52.50
20971;BME280;10644;48.834;10.088;2023-12-28T05:42:22;96807.13;;;8.66;52.36
20971;BME280;10644;48.834;10.088;2023-12-28T05:44:48;96813.22;;;8.82;52.67
20971;BME280;10644;48.834;10.088;2023-12-28T05:47:13;96810.03;;;8.95;52.33
20971;BME280;10644;48.834;10.088;2023-12-28T05:49:39;96808.09;;;9.00;52.44
20971;BME280;10644;48.834;10.088;2023-12-28T05:52:05;96810.03;;;9.14;52.76
20971;BME280;10644;48.834;10.088;2023-12-28T05:54:30;96811.66;;;9.33;52.66
20971;BME280;10644;48.834;10.088;2023-12-28T05:56:59;96809.41;;;9.44;52.34
20971;BME280;10644;48.834;10.088;2023-12-28T05:59:24;96825.38;;;9.66;52.01
20971;BME280;10644;48.834;10.088;2023-12-28T06:01:53;96823.16;;;9.94;51.45
20971;BME280;10644;48.834;10.088;2023-12-28T06:04:18;96816.53;;;10.07;51.24
20971;BME280;10644;48.834;10.088;2023-12-28T06:06:44;96826.94;;;10.21;50.25
20971;BME280;10644;48.834;10.088;2023-12-28T06:09:09;96827.97;;;10.34;49.83
20971;BME280;10644;48.834;10.088;2023-12-28T06:11:34;96825.75;;;10.44;50.11
20971;BME280;10644;48.834;10.088;2023-12-28T06:14:00;96832.88;;;10.54;49.53
20971;BME280;10644;48.834;10.088;2023-12-28T06:16:26;96829.34;;;10.57;48.64
20971;BME280;10644;48.834;10.088;2023-12-28T06:18:52;96851.69;;;10.70;48.39
20971;BME280;10644;48.834;10.088;2023-12-28T06:21:17;96840.56;;;10.87;48.11
20971;BME280;10644;48.834;10.088;2023-12-28T06:23:43;96843.38;;;10.98;48.23
20971;BME280;10644;48.834;10.088;2023-12-28T06:26:08;96836.09;;;11.06;47.13
20971;BME280;10644;48.834;10.088;2023-12-28T06:28:34;96841.22;;;11.21;47.56
20971;BME280;10644;48.834;10.088;2023-12-28T06:30:59;96841.47;;;11.32;47.50
20971;BME280;10644;48.834;10.088;2023-12-28T06:33:28;96851.19;;;11.43;47.15
20971;BME280;10644;48.834;10.088;2023-12-28T06:35:54;96834.78;;;11.45;47.21
20971;BME280;10644;48.834;10.088;2023-12-28T06:38:19;96845.38;;;11.39;45.60
20971;BME280;10644;48.834;10.088;2023-12-28T06:40:45;96847.13;;;11.39;45.75
20971;BME280;10644;48.834;10.088;2023-12-28T06:43:10;96848.03;;;11.38;45.52
20971;BME280;10644;48.834;10.088;2023-12-28T06:45:36;96839.75;;;11.48;45.37
20971;BME280;10644;48.834;10.088;2023-12-28T06:48:02;96852.31;;;11.53;45.65
20971;BME280;10644;48.834;10.088;2023-12-28T06:50:28;96847.38;;;11.65;45.68
20971;BME280;10644;48.834;10.088;2023-12-28T06:52:53;96858.38;;;11.67;45.17
20971;BME280;10644;48.834;10.088;2023-12-28T06:55:19;96854.63;;;11.73;45.65
20971;BME280;10644;48.834;10.088;2023-12-28T06:57:44;96857.84;;;11.76;45.14
20971;BME280;10644;48.834;10.088;2023-12-28T07:00:10;96880.59;;;11.82;44.55
20971;BME280;10644;48.834;10.088;2023-12-28T07:02:38;96868.03;;;11.78;45.34
20971;BME280;10644;48.834;10.088;2023-12-28T07:05:05;96878.22;;;11.79;44.97
20971;BME280;10644;48.834;10.088;2023-12-28T07:07:30;96868.69;;;11.81;45.20
20971;BME280;10644;48.834;10.088;2023-12-28T07:09:55;96868.03;;;11.78;45.25
20971;BME280;10644;48.834;10.088;2023-12-28T07:12:21;96873.19;;;11.78;45.02
20971;BME280;10644;48.834;10.088;2023-12-28T07:14:46;96884.25;;;11.78;45.43
20971;BME280;10644;48.834;10.088;2023-12-28T07:17:12;96874.81;;;11.79;45.34
20971;BME280;10644;48.834;10.088;2023-12-28T07:19:42;96868.78;;;11.80;45.11
20971;BME280;10644;48.834;10.088;2023-12-28T07:22:10;96874.56;;;11.83;44.97
20971;BME280;10644;48.834;10.088;2023-12-28T07:24:35;96874.66;;;11.82;45.53
20971;BME280;10644;48.834;10.088;2023-12-28T07:27:00;96867.06;;;11.80;45.11
20971;BME280;10644;48.834;10.088;2023-12-28T07:29:26;96865.22;;;11.82;44.94
20971;BME280;10644;48.834;10.088;2023-12-28T07:31:51;96873.66;;;11.84;45.24
20971;BME280;10644;48.834;10.088;2023-12-28T07:34:16;96894.50;;;11.78;45.49
20971;BME280;10644;48.834;10.088;2023-12-28T07:36:42;96889.38;;;11.78;45.79
20971;BME280;10644;48.834;10.088;2023-12-28T07:39:09;96890.72;;;11.85;46.37
20971;BME280;10644;48.834;10.088;2023-12-28T07:41:34;96886.94;;;11.77;46.24
20971;BME280;10644;48.834;10.088;2023-12-28T07:43:59;96888.03;;;11.87;46.67
20971;BME280;10644;48.834;10.088;2023-12-28T07:46:25;96879.88;;;11.80;46.04
20971;BME280;10644;48.834;10.088;2023-12-28T07:48:50;96883.03;;;11.85;46.27
20971;BME280;10644;48.834;10.088;2023-12-28T07:51:15;96883.41;;;11.93;46.33
20971;BME280;10644;48.834;10.088;2023-12-28T07:53:41;96886.97;;;11.91;46.70
20971;BME280;10644;48.834;10.088;2023-12-28T07:56:06;96892.03;;;11.92;46.60
20971;BME280;10644;48.834;10.088;2023-12-28T07:58:32;96877.53;;;11.91;46.87
20971;BME280;10644;48.834;10.088;2023-12-28T08:00:57;96894.84;;;11.88;47.06
20971;BME280;10644;48.834;10.088;2023-12-28T08:03:22;96903.88;;;11.95;47.30
20971;BME280;10644;48.834;10.088;2023-12-28T08:05:48;96889.63;;;11.89;47.44
20971;BME280;10644;48.834;10.088;2023-12-28T08:08:15;96896.00;;;11.82;47.09
20971;BME280;10644;48.834;10.088;2023-12-28T08:10:41;96904.69;;;11.80;47.82
20971;BME280;10644;48.834;10.088;2023-12-28T08:13:06;96910.50;;;11.83;47.42
20971;BME280;10644;48.834;10.088;2023-12-28T08:15:31;96904.63;;;11.81;46.95
20971;BME280;10644;48.834;10.088;2023-12-28T08:17:57;96910.34;;;11.86;46.44
20971;BME280;10644;48.834;10.088;2023-12-28T08:20:22;96905.28;;;11.85;46.80
20971;BME280;10644;48.834;10.088;2023-12-28T08:22:47;96918.84;;;11.87;47.23
20971;BME280;10644;48.834;10.088;2023-12-28T08:25:13;96929.03;;;11.88;47.37
20971;BME280;10644;48.834;10.088;2023-12-28T08:27:38;96929.09;;;11.87;47.89
20971;BME280;10644;48.834;10.088;2023-12-28T08:30:04;96934.94;;;11.90;48.14
20971;BME280;10644;48.834;10.088;2023-12-28T08:32:30;96936.56;;;11.91;47.68
20971;BME280;10644;48.834;10.088;2023-12-28T08:34:55;96923.81;;;11.90;48.01
20971;BME280;10644;48.834;10.088;2023-12-28T08:37:21;96932.19;;;11.93;48.02
20971;BME280;10644;48.834;10.088;2023-12-28T08:39:46;96925.97;;;11.97;48.29
20971;BME280;10644;48.834;10.088;2023-12-28T08:42:11;96921.00;;;11.94;48.05
20971;BME280;10644;48.834;10.088;2023-12-28T08:44:37;96936.09;;;11.69;48.35
20971;BME280;10644;48.834;10.088;2023-12-28T08:47:02;96932.94;;;11.64;48.77
20971;BME280;10644;48.834;10.088;2023-12-28T08:49:27;96922.53;;;11.67;48.86
20971;BME280;10644;48.834;10.088;2023-12-28T08:51:54;96925.50;;;11.60;48.72
20971;BME280;10644;48.834;10.088;2023-12-28T08:54:19;96917.69;;;11.61;49.17
20971;BME280;10644;48.834;10.088;2023-12-28T08:56:45;96923.78;;;11.43;49.25
20971;BME280;10644;48.834;10.088;2023-12-28T08:59:12;96928.44;;;11.52;49.53
20971;BME280;10644;48.834;10.088;2023-12-28T09:01:40;96927.47;;;11.55;49.86
20971;BME280;10644;48.834;10.088;2023-12-28T09:04:08;96923.47;;;11.49;50.10
20971;BME280;10644;48.834;10.088;2023-12-28T09:06:33;96922.13;;;11.27;50.87
20971;BME280;10644;48.834;10.088;2023-12-28T09:08:58;96932.53;;;11.08;51.90
20971;BME280;10644;48.834;10.088;2023-12-28T09:11:24;96937.66;;;10.59;52.19
20971;BME280;10644;48.834;10.088;2023-12-28T09:13:49;96942.94;;;10.22;53.87
20971;BME280;10644;48.834;10.088;2023-12-28T09:16:15;96928.72;;;10.16;54.48
20971;BME280;10644;48.834;10.088;2023-12-28T09:18:41;96935.91;;;10.08;54.39
20971;BME280;10644;48.834;10.088;2023-12-28T09:21:08;96933.81;;;9.62;55.71
20971;BME280;10644;48.834;10.088;2023-12-28T09:23:34;96935.16;;;9.52;56.26
20971;BME280;10644;48.834;10.088;2023-12-28T09:26:04;96946.50;;;9.65;56.04
20971;BME280;10644;48.834;10.088;2023-12-28T09:28:30;96956.63;;;10.02;54.65
20971;BME280;10644;48.834;10.088;2023-12-28T09:30:55;96936.88;;;10.06;54.37
20971;BME280;10644;48.834;10.088;2023-12-28T09:33:21;96924.13;;;9.87;54.99
20971;BME280;10644;48.834;10.088;2023-12-28T09:35:46;96931.63;;;9.90;55.06
20971;BME280;10644;48.834;10.088;2023-12-28T09:38:14;96929.31;;;10.04;55.39
20971;BME280;10644;48.834;10.088;2023-12-28T09:40:43;96931.13;;;10.01;54.87
20971;BME280;10644;48.834;10.088;2023-12-28T09:43:37;96931.41;;;9.95;54.94
20971;BME280;10644;48.834;10.088;2023-12-28T09:46:08;96923.22;;;9.88;55.23
20971;BME280;10644;48.834;10.088;2023-12-28T09:48:37;96919.75;;;9.89;55.47
20971;BME280;10644;48.834;10.088;2023-12-28T09:51:04;96911.66;;;10.15;54.60
20971;BME280;10644;48.834;10.088;2023-12-28T09:53:30;96916.06;;;10.30;54.46
20971;BME280;10644;48.834;10.088;2023-12-28T09:55:56;96915.81;;;10.52;54.73
20971;BME280;10644;48.834;10.088;2023-12-28T09:58:22;96907.91;;;10.56;53.58
20971;BME280;10644;48.834;10.088;2023-12-28T10:00:49;96903.72;;;10.38;54.41
20971;BME280;10644;48.834;10.088;2023-12-28T10:03:15;96913.53;;;10.63;53.53
20971;BME280;10644;48.834;10.088;2023-12-28T10:05:41;96911.25;;;10.74;53.40
20971;BME280;10644;48.834;10.088;2023-12-28T10:08:07;96904.53;;;10.88;52.93
20971;BME280;10644;48.834;10.088;2023-12-28T10:10:33;96901.22;;;10.86;52.71
20971;BME280;10644;48.834;10.088;2023-12-28T10:12:59;96910.44;;;10.73;53.25
20971;BME280;10644;48.834;10.088;2023-12-28T10:15:24;96887.25;;;10.59;53.59
20971;BME280;10644;48.834;10.088;2023-12-28T10:17:54;96900.22;;;10.56;54.25
20971;BME280;10644;48.834;10.088;2023-12-28T10:20:19;96898.66;;;10.54;54.57
20971;BME280;10644;48.834;10.088;2023-12-28T10:22:45;96899.00;;;10.63;54.61
20971;BME280;10644;48.834;10.088;2023-12-28T10:25:11;96886.91;;;10.82;53.93
20971;BME280;10644;48.834;10.088;2023-12-28T10:27:40;96897.81;;;11.03;53.25
20971;BME280;10644;48.834;10.088;2023-12-28T10:30:10;96892.56;;;11.04;52.97
20971;BME280;10644;48.834;10.088;2023-12-28T10:32:41;96892.09;;;11.13;53.31
20971;BME280;10644;48.834;10.088;2023-12-28T10:35:06;96895.78;;;11.08;53.50
20971;BME280;10644;48.834;10.088;2023-12-28T10:37:32;96901.75;;;11.08;53.19
20971;BME280;10644;48.834;10.088;2023-12-28T10:39:59;96893.34;;;11.22;52.97
20971;BME280;10644;48.834;10.088;2023-12-28T10:42:33;96893.88;;;11.28;52.50
20971;BME280;10644;48.834;10.088;2023-12-28T10:45:04;96896.84;;;11.36;52.53
20971;BME280;10644;48.834;10.088;2023-12-28T10:47:33;96890.00;;;11.04;53.29
20971;BME280;10644;48.834;10.088;2023-12-28T10:50:03;96900.19;;;11.21;52.79
20971;BME280;10644;48.834;10.088;2023-12-28T10:52:33;96898.47;;;11.37;52.39
20971;BME280;10644;48.834;10.088;2023-12-28T10:57:58;96901.63;;;11.27;52.93
20971;BME280;10644;48.834;10.088;2023-12-28T11:00:30;96896.56;;;11.41;52.67
20971;BME280;10644;48.834;10.088;2023-12-28T11:03:03;96894.84;;;11.41;52.30
20971;BME280;10644;48.834;10.088;2023-12-28T11:05:29;96899.66;;;11.47;53.10
20971;BME280;10644;48.834;10.088;2023-12-28T11:07:57;96893.22;;;11.71;52.61
20971;BME280;10644;48.834;10.088;2023-12-28T11:10:24;96892.44;;;11.85;52.12
20971;BME280;10644;48.834;10.088;2023-12-28T11:12:53;96886.69;;;11.95;52.04
20971;BME280;10644;48.834;10.088;2023-12-28T11:15:19;96877.41;;;12.08;51.90
20971;BME280;10644;48.834;10.088;2023-12-28T11:17:44;96891.03;;;12.24;51.17
20971;BME280;10644;48.834;10.088;2023-12-28T11:20:11;96893.72;;;12.37;50.35
20971;BME280;10644;48.834;10.088;2023-12-28T11:22:37;96880.22;;;12.33;50.23
20971;BME280;10644;48.834;10.088;2023-12-28T11:25:03;96887.22;;;12.45;50.04
20971;BME280;10644;48.834;10.088;2023-12-28T11:27:34;96872.94;;;12.55;49.54
20971;BME280;10644;48.834;10.088;2023-12-28T11:30:00;96875.22;;;12.60;49.79
20971;BME280;10644;48.834;10.088;2023-12-28T11:32:28;96855.88;;;12.54;49.33
20971;BME280;10644;48.834;10.088;2023-12-28T11:35:04;96841.81;;;12.60;49.36
20971;BME280;10644;48.834;10.088;2023-12-28T11:37:32;96847.44;;;12.80;49.20
20971;BME280;10644;48.834;10.088;2023-12-28T11:40:09;96854.41;;;12.92;48.53
20971;BME280;10644;48.834;10.088;2023-12-28T11:42:35;96855.88;;;12.96;49.05
20971;BME280;10644;48.834;10.088;2023-12-28T11:45:00;96847.28;;;12.97;48.67
20971;BME280;10644;48.834;10.088;2023-12-28T11:47:28;96836.22;;;12.95;48.48
20971;BME280;10644;48.834;10.088;2023-12-28T11:49:56;96845.06;;;13.05;48.55
20971;BME280;10644;48.834;10.088;2023-12-28T11:52:31;96840.63;;;13.07;48.28
20971;BME280;10644;48.834;10.088;2023-12-28T11:54:57;96831.56;;;13.02;48.13
20971;BME280;10644;48.834;10.088;2023-12-28T11:57:23;96830.94;;;12.98;48.09
20971;BME280;10644;48.834;10.088;2023-12-28T11:59:53;96829.44;;;12.94;48.52
20971;BME280;10644;48.834;10.088;2023-12-28T12:02:19;96841.56;;;13.06;48.40
20971;BME280;10644;48.834;10.088;2023-12-28T12:04:49;96840.38;;;12.98;48.47
20971;BME280;10644;48.834;10.088;2023-12-28T12:07:15;96833.28;;;12.87;49.10
20971;BME280;10644;48.834;10.088;2023-12-28T12:09:42;96847.81;;;13.02;49.03
20971;BME280;10644;48.834;10.088;2023-12-28T12:12:07;96850.13;;;13.07;49.31
20971;BME280;10644;48.834;10.088;2023-12-28T12:14:34;96839.63;;;13.10;49.26
20971;BME280;10644;48.834;10.088;2023-12-28T12:17:00;96842.25;;;13.36;49.02
20971;BME280;10644;48.834;10.088;2023-12-28T12:19:26;96830.50;;;13.32;48.84
20971;BME280;10644;48.834;10.088;2023-12-28T12:21:57;96826.63;;;13.39;49.12
20971;BME280;10644;48.834;10.088;2023-12-28T12:24:23;96835.06;;;13.41;49.14
20971;BME280;10644;48.834;10.088;2023-12-28T12:26:52;96824.13;;;13.38;49.49
20971;BME280;10644;48.834;10.088;2023-12-28T12:29:20;96831.59;;;13.42;49.27
20971;BME280;10644;48.834;10.088;2023-12-28T12:31:48;96829.91;;;13.41;49.63
20971;BME280;10644;48.834;10.088;2023-12-28T12:34:17;96814.47;;;13.41;49.49
20971;BME280;10644;48.834;10.088;2023-12-28T12:36:43;96821.56;;;13.38;49.83
20971;BME280;10644;48.834;10.088;2023-12-28T12:39:12;96820.75;;;13.37;50.08
20971;BME280;10644;48.834;10.088;2023-12-28T12:41:41;96812.66;;;13.43;49.88
20971;BME280;10644;48.834;10.088;2023-12-28T12:44:07;96824.91;;;13.52;49.88
20971;BME280;10644;48.834;10.088;2023-12-28T12:46:35;96814.53;;;13.53;49.63
20971;BME280;10644;48.834;10.088;2023-12-28T12:49:01;96812.94;;;13.65;49.73
20971;BME280;10644;48.834;10.088;2023-12-28T12:51:28;96823.47;;;13.74;49.79
20971;BME280;10644;48.834;10.088;2023-12-28T12:54:00;96811.09;;;13.67;50.29
20971;BME280;10644;48.834;10.088;2023-12-28T12:56:28;96819.63;;;13.68;50.23